createdAt,value
2022-10-11T00:01:43.020Z,42.83
2022-10-11T00:04:09.660Z,39.42
2022-10-11T00:06:38.240Z,37.08
2022-10-11T00:09:05.672Z,35.97
2022-10-11T00:11:32.736Z,38.63
2022-10-11T00:13:59.219Z,38.38
2022-10-11T00:16:25.911Z,35.65
2022-10-11T00:18:52.440Z,36.13
2022-10-11T00:21:20.927Z,38.88
2022-10-11T00:23:48.084Z,36.05
2022-10-11T00:26:15.128Z,39.53
2022-10-11T00:28:42.432Z,34.65
2022-10-11T00:31:11.584Z,35.40
2022-10-11T00:33:38.315Z,36.80
2022-10-11T00:36:05.678Z,39.33
2022-10-11T00:38:32.580Z,40.20
2022-10-11T00:41:00.174Z,37.60
2022-10-11T00:43:29.832Z,35.45
2022-10-11T00:45:56.351Z,37.58
2022-10-11T00:48:27.913Z,35.55
2022-10-11T00:50:59.924Z,36.15
2022-10-11T00:53:29.468Z,35.35
2022-10-11T00:56:04.262Z,37.75
2022-10-11T00:58:33.865Z,34.60
2022-10-11T01:01:00.674Z,35.33
2022-10-11T01:03:29.467Z,36.10
2022-10-11T01:05:55.978Z,36.25
2022-10-11T01:08:23.266Z,33.90
2022-10-11T01:10:49.983Z,32.67
2022-10-11T01:13:28.509Z,33.83
2022-10-11T01:15:59.205Z,33.28
2022-10-11T01:19:00.844Z,30.50
2022-10-11T01:21:27.451Z,26.20
2022-10-11T01:24:14.448Z,24.58
2022-10-11T01:27:07.124Z,27.40
2022-10-11T01:29:55.083Z,27.83
2022-10-11T01:32:29.642Z,30.55
2022-10-11T01:39:06.867Z,30.58
2022-10-11T01:41:42.721Z,30.60
2022-10-11T01:44:12.380Z,29.38
2022-10-11T01:46:39.080Z,25.63
2022-10-11T01:49:06.000Z,26.70
2022-10-11T01:51:36.332Z,26.75
2022-10-11T01:55:07.613Z,27.73
2022-10-11T01:57:48.635Z,26.95
2022-10-11T02:00:21.641Z,29.40
2022-10-11T02:03:10.105Z,25.30
2022-10-11T02:05:57.429Z,26.33
2022-10-11T02:08:50.120Z,30.83
2022-10-11T02:11:24.619Z,30.02
2022-10-11T02:14:00.427Z,29.83
2022-10-11T02:16:31.495Z,31.50
2022-10-11T02:19:02.924Z,35.65
2022-10-11T02:21:33.241Z,36.03
2022-10-11T02:24:25.259Z,38.00
2022-10-11T02:26:55.511Z,34.50
2022-10-11T02:29:24.581Z,34.53
2022-10-11T02:31:52.476Z,33.95
2022-10-11T02:34:27.520Z,30.05
2022-10-11T02:37:01.408Z,27.75
2022-10-11T02:39:39.406Z,27.70
2022-10-11T02:42:13.391Z,28.92
2022-10-11T02:45:01.100Z,24.73
2022-10-11T02:47:31.135Z,21.90
2022-10-11T02:50:00.050Z,25.15
2022-10-11T02:52:27.097Z,22.73
2022-10-11T02:54:53.704Z,23.90
2022-10-11T02:57:20.408Z,24.48
2022-10-11T02:59:46.892Z,27.58
2022-10-11T03:02:13.519Z,31.92
2022-10-11T03:04:40.012Z,31.85
2022-10-11T03:07:06.592Z,35.38
2022-10-11T03:09:33.124Z,38.30
2022-10-11T03:11:59.691Z,39.90
2022-10-11T03:14:26.347Z,40.72
2022-10-11T03:16:53.208Z,41.72
2022-10-11T03:19:19.756Z,40.08
2022-10-11T03:21:46.901Z,42.22
2022-10-11T03:24:13.479Z,40.05
2022-10-11T03:26:40.051Z,37.95
2022-10-11T03:29:06.546Z,42.20
2022-10-11T03:31:33.114Z,38.53
2022-10-11T03:33:59.636Z,40.88
2022-10-11T03:36:26.453Z,40.67
2022-10-11T03:38:53.000Z,34.85
2022-10-11T03:41:19.750Z,28.58
2022-10-11T03:43:46.315Z,26.23
2022-10-11T03:46:13.028Z,23.58
2022-10-11T03:48:39.785Z,23.55
2022-10-11T03:51:06.538Z,25.23
2022-10-11T03:53:33.156Z,24.40
2022-10-11T03:56:01.534Z,26.20
2022-10-11T03:58:31.401Z,23.58
2022-10-11T04:00:57.933Z,33.85
2022-10-11T04:03:24.520Z,27.15
2022-10-11T04:05:51.302Z,33.25
2022-10-11T04:08:18.301Z,34.40
2022-10-11T04:10:44.879Z,35.17
2022-10-11T04:13:12.144Z,36.17
2022-10-11T04:15:39.363Z,35.03
2022-10-11T04:18:06.470Z,33.78
2022-10-11T04:20:33.016Z,28.23
2022-10-11T04:22:59.724Z,26.98
2022-10-11T04:25:26.276Z,26.33
2022-10-11T04:27:52.904Z,29.08
2022-10-11T04:30:19.977Z,34.10
2022-10-11T04:32:46.529Z,37.42
2022-10-11T04:35:13.384Z,39.13
2022-10-11T04:37:40.056Z,37.10
2022-10-11T04:40:08.336Z,37.53
2022-10-11T04:42:35.166Z,37.13
2022-10-11T04:45:01.717Z,33.75
2022-10-11T04:47:28.285Z,30.00
2022-10-11T04:49:54.774Z,31.83
2022-10-11T04:52:25.539Z,28.02
2022-10-11T04:54:52.578Z,24.20
2022-10-11T04:57:19.068Z,22.58
2022-10-11T04:59:49.995Z,26.30
2022-10-11T05:02:17.201Z,33.97
2022-10-11T05:04:43.825Z,39.85
2022-10-11T05:07:10.468Z,38.85
2022-10-11T05:09:37.025Z,38.20
2022-10-11T05:12:04.083Z,31.25
2022-10-11T05:14:30.695Z,24.95
2022-10-11T05:16:57.601Z,21.98
2022-10-11T05:19:24.076Z,32.08
2022-10-11T05:21:50.685Z,38.78
2022-10-11T05:24:17.184Z,41.28
2022-10-11T05:26:43.732Z,33.15
2022-10-11T05:29:10.245Z,30.27
2022-10-11T05:31:36.827Z,37.53
2022-10-11T05:34:03.425Z,28.13
2022-10-11T05:36:30.115Z,35.80
2022-10-11T05:38:56.613Z,39.40
2022-10-11T05:41:23.274Z,34.33
2022-10-11T05:43:49.952Z,37.83
2022-10-11T05:46:16.760Z,34.83
2022-10-11T05:48:43.268Z,28.50
2022-10-11T05:51:12.090Z,22.92
2022-10-11T05:53:39.323Z,23.67
2022-10-11T05:56:18.475Z,23.65
2022-10-11T05:58:45.015Z,16.80
2022-10-11T06:01:23.831Z,18.55
2022-10-11T06:03:51.231Z,16.65
2022-10-11T06:06:18.276Z,22.02
2022-10-11T06:08:45.653Z,22.48
2022-10-11T06:11:18.214Z,22.15
2022-10-11T06:13:44.816Z,16.63
2022-10-11T06:16:12.228Z,12.50
2022-10-11T06:18:39.160Z,12.38
2022-10-11T06:21:05.817Z,11.27
2022-10-11T06:23:32.463Z,11.60
2022-10-11T06:26:06.854Z,10.40
2022-10-11T06:28:35.687Z,11.60
2022-10-11T06:31:05.172Z,10.85
2022-10-11T06:33:32.157Z,10.38
2022-10-11T06:36:00.361Z,10.48
2022-10-11T06:38:27.068Z,10.00
2022-10-11T06:40:53.860Z,11.23
2022-10-11T06:43:21.000Z,9.73
2022-10-11T06:45:47.628Z,10.52
2022-10-11T06:48:14.870Z,11.63
2022-10-11T06:50:59.075Z,10.35
2022-10-11T06:53:27.959Z,11.73
2022-10-11T06:56:01.016Z,11.52
2022-10-11T06:58:28.469Z,13.57
2022-10-11T07:00:55.075Z,13.43
2022-10-11T07:03:21.704Z,14.20
2022-10-11T07:05:48.216Z,14.73
2022-10-11T07:08:14.988Z,14.30
2022-10-11T07:10:41.492Z,15.48
2022-10-11T07:13:11.551Z,16.45
2022-10-11T07:15:41.437Z,17.10
2022-10-11T07:18:08.045Z,15.63
2022-10-11T07:23:12.992Z,56.25
2022-10-11T07:25:39.739Z,21.80
2022-10-11T07:28:06.291Z,23.70
2022-10-11T07:30:33.954Z,17.20
2022-10-11T07:33:00.443Z,19.33
2022-10-11T07:35:27.066Z,18.27
2022-10-11T07:37:53.620Z,18.85
2022-10-11T07:40:20.181Z,18.08
2022-10-11T07:42:46.922Z,14.98
2022-10-11T07:45:16.801Z,17.17
2022-10-11T07:47:46.357Z,15.52
2022-10-11T07:50:13.900Z,15.05
2022-10-11T07:52:40.597Z,15.18
2022-10-11T07:55:07.758Z,13.70
2022-10-11T07:57:34.272Z,14.18
2022-10-11T08:00:00.928Z,14.05
2022-10-11T08:04:56.563Z,13.90
2022-10-11T08:07:23.301Z,15.00
2022-10-11T08:09:49.885Z,11.82
2022-10-11T08:12:16.649Z,11.80
2022-10-11T08:14:43.245Z,14.68
2022-10-11T08:17:10.104Z,17.88
2022-10-11T08:19:36.647Z,20.60
2022-10-11T08:22:04.381Z,18.85
2022-10-11T08:24:33.534Z,16.00
2022-10-11T08:27:03.936Z,15.52
2022-10-11T08:29:30.477Z,15.98
2022-10-11T08:31:57.089Z,17.50
2022-10-11T08:34:23.932Z,17.60
2022-10-11T08:36:50.710Z,29.17
2022-10-11T08:39:17.233Z,29.92
2022-10-11T08:41:52.647Z,18.13
2022-10-11T08:44:46.130Z,18.58
2022-10-11T08:47:28.555Z,18.98
2022-10-11T08:49:56.005Z,17.80
2022-10-11T08:52:27.344Z,20.35
2022-10-11T08:54:58.223Z,16.25
2022-10-11T08:57:27.679Z,18.95
2022-10-11T08:59:58.857Z,20.98
2022-10-11T09:02:55.741Z,19.70
2022-10-11T09:05:25.056Z,21.23
2022-10-11T09:08:07.405Z,21.42
2022-10-11T09:10:55.913Z,19.88
2022-10-11T09:14:11.748Z,18.27
2022-10-11T09:16:59.529Z,18.65
2022-10-11T09:19:50.970Z,19.77
2022-10-11T09:22:20.560Z,21.67
2022-10-11T09:24:54.049Z,19.42
2022-10-11T09:28:02.899Z,18.42
2022-10-11T09:30:31.052Z,16.10
2022-10-11T09:35:22.674Z,17.73
2022-10-11T09:38:04.401Z,17.05
2022-10-11T09:40:33.936Z,14.10
2022-10-11T09:43:00.447Z,18.45
2022-10-11T09:45:27.105Z,16.85
2022-10-11T09:47:56.020Z,17.17
2022-10-11T09:50:26.091Z,17.17
2022-10-11T09:53:01.805Z,15.55
2022-10-11T09:55:33.265Z,13.73
2022-10-11T09:58:00.522Z,12.48
2022-10-11T10:00:30.074Z,12.55
2022-10-11T10:03:04.557Z,11.80
2022-10-11T10:05:33.821Z,12.57
2022-10-11T10:08:26.920Z,15.02
2022-10-11T10:10:59.429Z,13.48
2022-10-11T10:13:52.827Z,14.32
2022-10-11T10:16:33.690Z,13.85
2022-10-11T10:19:03.673Z,14.43
2022-10-11T10:21:37.308Z,14.93
2022-10-11T10:24:20.557Z,14.93
2022-10-11T10:27:10.188Z,15.02
2022-10-11T10:29:37.507Z,14.52
2022-10-11T10:32:21.265Z,17.30
2022-10-11T10:35:06.687Z,15.43
2022-10-11T10:37:40.685Z,15.23
2022-10-11T10:40:17.164Z,17.17
2022-10-11T10:42:43.805Z,14.25
2022-10-11T10:45:21.415Z,14.98
2022-10-11T10:48:18.233Z,15.48
2022-10-11T10:51:10.340Z,8.77
2022-10-11T10:53:44.411Z,13.38
2022-10-11T10:56:17.422Z,12.65
2022-10-11T10:59:13.288Z,12.48
2022-10-11T11:02:11.123Z,12.73
2022-10-11T11:05:17.451Z,11.77
2022-10-11T11:07:50.031Z,11.52
2022-10-11T11:10:23.238Z,12.10
2022-10-11T11:13:22.476Z,11.98
2022-10-11T11:16:15.121Z,11.70
2022-10-11T11:19:13.401Z,11.52
2022-10-11T11:21:52.261Z,13.23
2022-10-11T11:24:40.472Z,12.85
2022-10-11T11:27:27.423Z,11.68
2022-10-11T11:30:06.280Z,9.95
2022-10-11T11:32:48.140Z,12.88
2022-10-11T11:35:37.988Z,12.35
2022-10-11T11:38:16.557Z,13.43
2022-10-11T11:40:52.469Z,19.15
2022-10-11T11:43:32.664Z,11.85
2022-10-11T11:46:14.035Z,12.68
2022-10-11T11:48:43.197Z,13.25
2022-10-11T11:51:17.681Z,14.43
2022-10-11T11:54:12.328Z,15.05
2022-10-11T11:56:47.830Z,13.80
2022-10-11T11:59:27.828Z,15.82
2022-10-11T12:02:42.429Z,16.42
2022-10-11T12:05:11.967Z,15.43
2022-10-11T12:08:28.121Z,16.48
2022-10-11T12:10:59.557Z,16.80
2022-10-11T12:13:46.477Z,13.80
2022-10-11T12:16:15.632Z,14.32
2022-10-11T12:18:51.063Z,13.18
2022-10-11T12:21:32.908Z,12.38
2022-10-11T12:24:09.537Z,16.20
2022-10-11T12:26:47.133Z,16.17
2022-10-11T12:29:43.577Z,15.30
2022-10-11T12:32:11.399Z,13.68
2022-10-11T12:37:19.017Z,12.90
2022-10-11T12:39:52.767Z,12.80
2022-10-11T12:42:26.273Z,12.27
2022-10-11T12:45:10.942Z,13.63
2022-10-11T12:47:37.443Z,13.77
2022-10-11T12:50:17.856Z,14.68
2022-10-11T12:53:12.344Z,14.52
2022-10-11T12:55:46.732Z,15.00
2022-10-11T12:58:43.874Z,14.90
2022-10-11T13:01:17.485Z,12.13
2022-10-11T13:04:00.093Z,14.40
2022-10-11T13:06:44.405Z,15.30
2022-10-11T13:09:10.917Z,15.10
2022-10-11T13:11:45.535Z,15.52
2022-10-11T13:14:19.114Z,13.10
2022-10-11T13:16:58.477Z,12.35
2022-10-11T13:19:26.049Z,13.77
2022-10-11T13:21:59.337Z,12.77
2022-10-11T13:24:27.667Z,12.98
2022-10-11T13:26:56.460Z,13.40
2022-10-11T13:29:28.733Z,12.75
2022-10-11T13:31:55.873Z,12.30
2022-10-11T13:34:23.646Z,13.02
2022-10-11T13:36:58.663Z,11.98
2022-10-11T13:39:31.532Z,11.77
2022-10-11T13:41:59.670Z,11.90
2022-10-11T13:44:26.992Z,11.27
2022-10-11T13:46:56.613Z,11.00
2022-10-11T13:49:27.044Z,11.20
2022-10-11T13:52:02.295Z,9.68
2022-10-11T13:55:04.174Z,10.10
2022-10-11T13:57:38.958Z,10.65
2022-10-11T14:00:24.088Z,12.18
2022-10-11T14:03:02.181Z,12.05
2022-10-11T14:05:41.202Z,11.30
2022-10-11T14:08:55.199Z,12.00
2022-10-11T14:11:39.650Z,11.65
2022-10-11T14:14:28.825Z,9.50
2022-10-11T14:17:05.713Z,9.07
2022-10-11T14:19:34.469Z,8.20
2022-10-11T14:22:00.956Z,10.27
2022-10-11T14:24:27.576Z,7.70
2022-10-11T14:26:55.799Z,9.27
2022-10-11T14:29:25.667Z,9.95
2022-10-11T14:32:05.510Z,12.50
2022-10-11T14:34:34.900Z,10.18
2022-10-11T14:37:01.447Z,9.68
2022-10-11T14:39:30.933Z,9.80
2022-10-11T14:41:57.873Z,8.82
2022-10-11T14:44:24.784Z,11.35
2022-10-11T14:46:54.725Z,10.93
2022-10-11T14:49:28.701Z,13.30
2022-10-11T14:51:57.545Z,11.27
2022-10-11T14:54:25.588Z,11.13
2022-10-11T14:56:54.815Z,9.57
2022-10-11T14:59:24.645Z,15.07
2022-10-11T15:01:53.827Z,9.45
2022-10-11T15:04:21.512Z,11.48
2022-10-11T15:06:48.872Z,13.10
2022-10-11T15:09:17.122Z,12.95
2022-10-11T15:11:43.792Z,12.93
2022-10-11T15:14:10.368Z,15.27
2022-10-11T15:16:36.944Z,16.50
2022-10-11T15:19:03.933Z,18.20
2022-10-11T15:21:30.657Z,18.17
2022-10-11T15:23:57.539Z,17.00
2022-10-11T15:26:29.012Z,13.27
2022-10-11T15:28:57.182Z,11.70
2022-10-11T15:31:24.152Z,12.55
2022-10-11T15:33:51.083Z,10.38
2022-10-11T15:36:20.821Z,10.90
2022-10-11T15:38:48.333Z,10.23
2022-10-11T15:41:16.582Z,10.95
2022-10-11T15:43:44.861Z,11.82
2022-10-11T15:46:17.696Z,18.83
2022-10-11T15:48:45.669Z,28.48
2022-10-11T15:51:12.553Z,30.33
2022-10-11T15:53:40.516Z,25.17
2022-10-11T15:56:12.168Z,23.95
2022-10-11T15:58:41.518Z,24.58
2022-10-11T16:01:19.600Z,107.43
2022-10-11T16:03:48.427Z,99.80
2022-10-11T16:06:16.202Z,60.88
2022-10-11T16:08:43.355Z,57.95
2022-10-11T16:11:10.757Z,47.10
2022-10-11T16:13:37.841Z,45.00
2022-10-11T16:16:06.912Z,41.88
2022-10-11T16:18:35.613Z,39.13
2022-10-11T16:21:08.424Z,26.52
2022-10-11T16:23:35.953Z,31.13
2022-10-11T16:26:06.015Z,30.02
2022-10-11T16:28:33.380Z,21.13
2022-10-11T16:31:00.197Z,21.33
2022-10-11T16:33:26.979Z,23.38
2022-10-11T16:35:56.157Z,27.45
2022-10-11T16:38:22.716Z,28.05
2022-10-11T16:40:49.212Z,29.35
2022-10-11T16:43:15.802Z,27.27
2022-10-11T16:45:42.300Z,36.60
2022-10-11T16:48:08.833Z,57.10
2022-10-11T16:50:39.302Z,50.10
2022-10-11T16:53:06.515Z,40.13
2022-10-11T16:55:33.106Z,39.65
2022-10-11T16:57:59.717Z,40.03
2022-10-11T17:00:26.306Z,48.83
2022-10-11T17:02:55.032Z,41.28
2022-10-11T17:05:21.619Z,35.80
2022-10-11T17:07:48.155Z,34.58
2022-10-11T17:10:14.699Z,28.67
2022-10-11T17:12:41.308Z,28.35
2022-10-11T17:15:10.822Z,29.52
2022-10-11T17:17:37.481Z,27.30
2022-10-11T17:20:04.467Z,30.27
2022-10-11T17:22:31.042Z,31.45
2022-10-11T17:24:57.535Z,30.73
2022-10-11T17:27:24.166Z,30.15
2022-10-11T17:29:50.669Z,30.70
2022-10-11T17:32:17.224Z,31.90
2022-10-11T17:34:43.782Z,32.78
2022-10-11T17:37:12.484Z,36.72
2022-10-11T17:39:38.980Z,39.50
2022-10-11T17:42:07.705Z,54.05
2022-10-11T17:44:35.710Z,39.95
2022-10-11T17:47:02.800Z,55.53
2022-10-11T17:49:29.599Z,51.42
2022-10-11T17:51:56.640Z,41.95
2022-10-11T17:54:23.266Z,158.10
2022-10-11T17:56:50.295Z,87.60
2022-10-11T17:59:18.839Z,71.20
2022-10-11T18:01:45.538Z,68.03
2022-10-11T18:04:16.577Z,55.78
2022-10-11T18:06:45.886Z,38.47
2022-10-11T18:09:15.033Z,20.65
2022-10-11T18:11:41.833Z,23.20
2022-10-11T18:14:09.428Z,30.33
2022-10-11T18:16:37.256Z,25.60
2022-10-11T18:19:07.050Z,33.45
2022-10-11T18:21:35.102Z,53.70
2022-10-11T18:24:03.956Z,35.15
2022-10-11T18:26:31.210Z,38.30
2022-10-11T18:28:58.495Z,44.00
2022-10-11T18:31:28.506Z,42.10
2022-10-11T18:33:55.613Z,36.80
2022-10-11T18:36:27.110Z,43.67
2022-10-11T18:38:56.788Z,42.05
2022-10-11T18:41:30.730Z,38.45
2022-10-11T18:44:06.405Z,52.58
2022-10-11T18:46:33.959Z,48.65
2022-10-11T18:49:03.619Z,51.35
2022-10-11T18:51:38.476Z,50.80
2022-10-11T18:54:06.905Z,46.70
2022-10-11T18:56:35.349Z,44.67
2022-10-11T18:59:05.380Z,39.47
2022-10-11T19:01:38.214Z,34.33
2022-10-11T19:04:07.381Z,25.30
2022-10-11T19:06:37.164Z,32.97
2022-10-11T19:09:13.991Z,28.55
2022-10-11T19:11:41.282Z,25.42
2022-10-11T19:14:11.372Z,24.15
2022-10-11T19:16:45.290Z,24.63
2022-10-11T19:19:12.889Z,25.05
2022-10-11T19:21:39.685Z,37.03
2022-10-11T19:24:06.683Z,31.10
2022-10-11T19:26:38.397Z,31.88
2022-10-11T19:29:08.193Z,34.63
2022-10-11T19:31:39.963Z,29.02
2022-10-11T19:34:06.720Z,19.38
2022-10-11T19:36:36.621Z,16.02
2022-10-11T19:39:05.424Z,13.13
2022-10-11T19:41:32.745Z,16.02
2022-10-11T19:43:59.960Z,16.40
2022-10-11T19:49:17.575Z,20.27
2022-10-11T19:51:44.454Z,25.55
2022-10-11T19:54:15.819Z,29.38
2022-10-11T19:56:43.441Z,30.05
2022-10-11T19:59:11.352Z,30.65
2022-10-11T20:01:41.850Z,23.42
2022-10-11T20:04:27.461Z,23.92
2022-10-11T20:06:57.909Z,26.60
2022-10-11T20:09:29.500Z,23.17
2022-10-11T20:11:56.809Z,20.63
2022-10-11T20:14:23.413Z,17.92
2022-10-11T20:16:50.790Z,16.70
2022-10-11T20:19:17.889Z,14.73
2022-10-11T20:21:45.081Z,13.70
2022-10-11T20:24:11.874Z,11.10
2022-10-11T20:26:39.194Z,13.85
2022-10-11T20:29:05.794Z,15.43
2022-10-11T20:31:40.917Z,19.65
2022-10-11T20:34:07.899Z,24.88
2022-10-11T20:36:35.839Z,23.25
2022-10-11T20:39:03.739Z,20.27
2022-10-11T20:41:33.368Z,21.30
2022-10-11T20:44:01.624Z,32.10
2022-10-11T20:46:31.496Z,24.15
2022-10-11T20:49:13.120Z,19.98
2022-10-11T20:51:41.718Z,14.23
2022-10-11T20:54:08.377Z,12.43
2022-10-11T20:56:36.800Z,8.90
2022-10-11T20:59:03.540Z,10.55
2022-10-11T21:01:33.265Z,10.70
2022-10-11T21:04:01.397Z,13.00
2022-10-11T21:06:31.479Z,12.85
2022-10-11T21:08:59.390Z,11.27
2022-10-11T21:11:27.506Z,15.98
2022-10-11T21:13:58.659Z,21.90
2022-10-11T21:16:26.892Z,23.50
2022-10-11T21:18:55.449Z,20.15
2022-10-11T21:21:23.850Z,21.23
2022-10-11T21:23:57.979Z,17.95
2022-10-11T21:26:25.491Z,21.65
2022-10-11T21:28:52.216Z,19.70
2022-10-11T21:31:22.933Z,23.27
2022-10-11T21:33:52.165Z,26.70
2022-10-11T21:36:20.962Z,30.17
2022-10-11T21:38:48.549Z,30.63
2022-10-11T21:41:26.057Z,33.60
2022-10-11T21:43:52.984Z,26.42
2022-10-11T21:46:41.593Z,28.10
2022-10-11T21:49:12.351Z,19.98
2022-10-11T21:51:38.912Z,16.77
2022-10-11T21:54:05.709Z,14.25
2022-10-11T21:56:32.425Z,19.17
2022-10-11T21:58:59.076Z,20.38
2022-10-11T22:01:25.667Z,20.13
2022-10-11T22:03:55.220Z,23.67
2022-10-11T22:06:22.086Z,20.77
2022-10-11T22:08:49.898Z,16.27
2022-10-11T22:11:17.039Z,16.80
2022-10-11T22:13:43.598Z,16.20
2022-10-11T22:16:12.988Z,17.55
2022-10-11T22:18:41.321Z,18.90
2022-10-11T22:21:14.113Z,19.23
2022-10-11T22:23:42.485Z,23.63
2022-10-11T22:26:14.700Z,26.55
2022-10-11T22:31:09.866Z,24.60
2022-10-11T22:33:36.965Z,26.90
2022-10-11T22:36:05.759Z,30.88
2022-10-11T22:38:32.580Z,28.95
2022-10-11T22:40:59.250Z,29.83
2022-10-11T22:43:25.979Z,33.72
2022-10-11T22:45:52.577Z,31.85
2022-10-11T22:48:19.221Z,35.42
2022-10-11T22:50:45.739Z,37.58
2022-10-11T22:53:16.117Z,37.15
2022-10-11T22:55:42.740Z,38.20
2022-10-11T22:58:09.572Z,40.50
2022-10-11T23:00:37.060Z,38.72
2022-10-11T23:03:03.941Z,40.10
2022-10-11T23:05:30.503Z,38.58
2022-10-11T23:07:57.021Z,41.78
2022-10-11T23:10:23.592Z,36.42
2022-10-11T23:12:50.074Z,37.00
2022-10-11T23:15:17.046Z,40.60
2022-10-11T23:17:43.521Z,36.28
2022-10-11T23:20:10.648Z,35.90
2022-10-11T23:22:37.262Z,32.75
2022-10-11T23:25:04.608Z,32.03
2022-10-11T23:27:31.156Z,30.23
2022-10-11T23:29:57.969Z,31.58
2022-10-11T23:32:24.523Z,34.13
2022-10-11T23:34:51.588Z,31.77
2022-10-11T23:37:18.260Z,35.17
2022-10-11T23:39:45.196Z,36.50
2022-10-11T23:42:11.827Z,39.78
2022-10-11T23:44:38.457Z,39.72
2022-10-11T23:47:04.991Z,37.85
2022-10-11T23:49:31.535Z,33.45
2022-10-11T23:51:58.134Z,34.17
2022-10-11T23:54:24.896Z,35.97
2022-10-11T23:56:51.446Z,34.17
2022-10-11T23:59:18.072Z,37.60
